Charlotte Douglas International Airport
KCLT : now visible

Airfield :











YOU CAN JOIN US ON...

 
LOGIN :

Register | Disclaimer

   EN    FR    IT 

 









Legend :    VFR   Marginal VFR   IFR   Intensive IFR   Very Intensive IFR
Visi :
Ceiling :
>= 8 km
>= 3000ft
5 to 8 km
1000 to 3000 ft
1500m to 5 km
500 to 1000 ft
800 to 1500m
200 to 500 ft
< 800m
< 200 ft
Symbols :   Thunderstorms  Fog  Heavy snow  Heavy precipitations  Wind > 20 kt






- Airport Elevation : 748 ft
- IATA code : CLT


KCLT - Charlotte Douglas International

EXPIRED METARs :
  • 022352Z 35004KT 10SM FEW250 15/M02 A2997 RMK AO2 SLP146 T01501022 10200 20150 53004
  • 022252Z 31007KT 10SM FEW250 18/M02 A2995 RMK AO2 SLP141 T01831017

TAF KCLT
Valid from the 03 at 00:00 until the 04 at 06:00 UTC


022326Z 0300/0406 33008KT P6SM FEW250
FM030400 31004KT P6SM FEW250
FM031800 30007G16KT P6SM FEW250
FM032000 30005KT P6SM SCT250



MET'MAP, your aeronautical weather chart ! - Copyright ORBIFLY December 2007 - Disclaimer

ORBIFLY MET'MAP TEAM :

Programming & Development : Alexandra Zaïnal
Concept & original design : Baudouin d'Aumeries
Assistance for programming : Marc-Olivier Méhu
Technical & hardware support : Manuel Goepfert

Contact : metmap@orbifly.com




SOURCES & CREDITS :

   NOAA       Earth
Advisory